createdAt,value
2018-07-08T00:05:48.245Z,73.20
2018-07-08T02:05:50.973Z,88.90
2018-07-08T15:51:59.939Z,34.70
2018-07-08T15:54:33.087Z,34.80
2018-07-08T15:57:31.847Z,37.80
2018-07-08T16:00:04.189Z,37.40
2018-07-08T16:02:51.848Z,37.60
2018-07-08T16:05:38.266Z,37.40
2018-07-08T16:08:14.266Z,37.70
2018-07-08T16:10:45.495Z,38.00
2018-07-08T16:13:15.290Z,38.30
2018-07-08T16:15:44.487Z,38.20
2018-07-08T16:18:15.593Z,38.40
2018-07-08T16:20:51.360Z,38.60
2018-07-08T16:26:04.091Z,38.50
2018-07-08T16:28:36.094Z,38.20
2018-07-08T16:31:09.745Z,38.60
2018-07-08T16:33:41.577Z,39.00
2018-07-08T16:36:11.388Z,38.70
2018-07-08T16:38:53.086Z,38.70
2018-07-08T16:41:33.923Z,38.90
2018-07-08T16:44:11.970Z,38.80
2018-07-08T16:47:23.171Z,38.70
2018-07-08T16:50:06.810Z,38.70
2018-07-08T16:52:39.220Z,38.30
2018-07-08T16:55:10.776Z,38.60
2018-07-08T16:57:43.326Z,39.20
2018-07-08T17:00:16.594Z,39.70
2018-07-08T17:16:50.291Z,40.10
2018-07-08T17:19:21.086Z,40.50
2018-07-08T17:21:56.147Z,40.40
2018-07-08T17:24:26.500Z,40.20
2018-07-08T17:26:57.524Z,40.10
2018-07-08T17:29:27.457Z,40.20
2018-07-08T17:32:00.187Z,40.50
2018-07-08T17:34:30.294Z,40.70
2018-07-08T17:37:03.546Z,40.70
2018-07-08T17:39:35.299Z,40.60
2018-07-08T17:42:06.378Z,41.20
2018-07-08T17:44:36.341Z,40.60
2018-07-08T17:47:07.535Z,40.10
2018-07-08T17:49:38.337Z,41.00
2018-07-08T17:52:10.150Z,41.10
2018-07-08T17:54:40.748Z,41.00
2018-07-08T17:57:22.463Z,40.70
2018-07-08T17:59:53.169Z,40.90
2018-07-08T18:02:26.793Z,41.40
2018-07-08T18:04:57.663Z,40.80
2018-07-08T18:07:39.816Z,40.70
2018-07-08T18:12:48.124Z,40.80
2018-07-08T18:15:21.561Z,40.50
2018-07-08T18:17:55.666Z,40.60
2018-07-08T18:20:30.122Z,40.80
2018-07-08T18:23:05.864Z,40.80
2018-07-08T18:25:36.755Z,40.30
2018-07-08T18:28:07.115Z,40.80
2018-07-08T18:30:38.314Z,41.10
2018-07-08T18:33:11.159Z,41.30
2018-07-08T18:35:41.736Z,41.30
2018-07-08T18:38:16.832Z,41.20
2018-07-08T18:40:54.383Z,41.30
2018-07-08T18:43:35.000Z,41.60
2018-07-08T18:46:23.784Z,41.60
2018-07-08T18:48:54.859Z,41.20
2018-07-08T18:51:25.308Z,41.20
2018-07-08T18:53:56.633Z,41.20
2018-07-08T18:56:26.454Z,41.60
2018-07-08T18:59:05.917Z,41.80
2018-07-08T19:01:36.400Z,42.00
2018-07-08T19:04:11.375Z,42.10
2018-07-08T19:06:42.100Z,42.10
2018-07-08T19:09:12.198Z,41.90
2018-07-08T19:11:43.382Z,42.90
2018-07-08T19:14:15.328Z,42.40
2018-07-08T19:16:45.549Z,42.70
2018-07-08T19:19:16.515Z,43.00
2018-07-08T19:21:46.730Z,43.00
2018-07-08T19:24:27.129Z,43.10
2018-07-08T19:27:00.606Z,43.40
2018-07-08T19:29:31.504Z,43.30
2018-07-08T19:32:00.652Z,43.20
2018-07-08T19:34:40.842Z,43.20
2018-07-08T19:37:30.904Z,43.20
2018-07-08T19:42:57.817Z,43.50
2018-07-08T19:45:31.057Z,43.70
2018-07-08T19:48:00.285Z,44.20
2018-07-08T19:50:30.512Z,44.20
2018-07-08T19:53:00.277Z,44.10
2018-07-08T19:55:30.202Z,44.20
2018-07-08T19:58:07.487Z,44.40
2018-07-08T20:00:38.573Z,44.70
2018-07-08T20:03:08.391Z,45.00
2018-07-08T20:05:38.025Z,45.10
2018-07-08T20:08:09.183Z,45.20
2018-07-08T20:10:38.529Z,45.30
2018-07-08T20:13:09.024Z,45.60
2018-07-08T20:18:09.775Z,45.60
2018-07-08T20:20:39.548Z,45.80
2018-07-08T20:23:11.101Z,46.20
2018-07-08T20:25:43.106Z,47.10
2018-07-08T20:28:12.454Z,46.60
2018-07-08T20:30:43.525Z,46.60
2018-07-08T20:35:43.364Z,46.50
2018-07-08T20:38:49.687Z,46.80
2018-07-08T20:43:56.015Z,47.20
2018-07-08T20:49:38.327Z,47.50
2018-07-08T20:55:13.601Z,47.90
2018-07-08T20:57:47.679Z,48.20
2018-07-08T21:00:17.188Z,48.70
2018-07-08T21:02:47.065Z,48.90
2018-07-08T21:05:18.932Z,49.20
2018-07-08T21:07:59.001Z,49.80
2018-07-08T21:10:34.609Z,50.60
2018-07-08T21:13:07.250Z,50.30
2018-07-08T21:15:39.042Z,50.00
2018-07-08T21:18:10.615Z,50.30
2018-07-08T21:20:40.660Z,50.90
2018-07-08T21:23:11.341Z,50.80
2018-07-08T21:25:41.729Z,51.60
2018-07-08T21:28:14.766Z,51.60
2018-07-08T21:30:44.314Z,51.70
2018-07-08T21:33:14.763Z,52.10
2018-07-08T21:35:44.249Z,52.90
2018-07-08T21:38:14.265Z,53.20
2018-07-08T21:40:53.392Z,54.10
2018-07-08T21:43:35.347Z,54.60
2018-07-08T21:50:41.236Z,55.60
2018-07-08T21:53:11.454Z,56.60
2018-07-08T21:55:42.053Z,56.90
2018-07-08T21:58:11.188Z,57.40
2018-07-08T22:01:23.103Z,58.10
2018-07-08T22:03:53.088Z,58.70
2018-07-08T22:06:22.684Z,59.80
2018-07-08T22:11:22.204Z,62.00
2018-07-08T22:13:52.096Z,62.90
2018-07-08T22:16:22.440Z,63.60
2018-07-08T22:18:55.192Z,64.00
2018-07-08T22:21:32.705Z,64.60
2018-07-08T22:24:13.384Z,65.00
2018-07-08T22:26:44.748Z,65.80
2018-07-08T22:29:15.386Z,66.60
2018-07-08T22:31:46.205Z,68.30
2018-07-08T22:41:48.435Z,69.70
2018-07-08T22:44:18.394Z,70.30
2018-07-08T22:49:18.784Z,71.60
2018-07-08T22:51:47.747Z,72.30
2018-07-08T22:56:48.588Z,73.20
2018-07-08T22:59:19.162Z,73.90
2018-07-08T23:02:00.099Z,74.60
2018-07-08T23:04:29.333Z,75.20
2018-07-08T23:07:03.103Z,75.60
2018-07-08T23:09:32.505Z,76.00
2018-07-08T23:12:04.180Z,76.20
2018-07-08T23:14:35.812Z,76.90
2018-07-08T23:17:05.242Z,77.60
2018-07-08T23:19:37.208Z,77.90
2018-07-08T23:24:35.795Z,77.80
2018-07-08T23:27:04.962Z,78.10
2018-07-08T23:32:03.185Z,78.70
2018-07-08T23:34:33.284Z,79.00
2018-07-08T23:37:05.381Z,79.00
2018-07-08T23:42:11.693Z,79.90
2018-07-08T23:44:42.513Z,80.40
2018-07-08T23:49:41.311Z,81.70
2018-07-08T23:52:11.274Z,82.10
2018-07-08T23:54:40.416Z,82.40
2018-07-08T23:59:39.455Z,83.20
